sensor_id;sensor_type;location;lat;lon;timestamp;temperature;humidity
56256;DHT22;57229;51.432;-2.598;2023-02-28T00:01:21;2.40;99.90
56256;DHT22;57229;51.432;-2.598;2023-02-28T00:03:47;2.40;99.90
56256;DHT22;57229;51.432;-2.598;2023-02-28T00:06:13;2.30;99.90
56256;DHT22;57229;51.432;-2.598;2023-02-28T00:08:39;2.30;99.90
56256;DHT22;57229;51.432;-2.598;2023-02-28T00:11:11;2.40;99.90
56256;DHT22;57229;51.432;-2.598;2023-02-28T00:13:41;2.50;99.90
56256;DHT22;57229;51.432;-2.598;2023-02-28T00:16:10;2.20;99.90
56256;DHT22;57229;51.432;-2.598;2023-02-28T00:18:37;2.20;99.90
56256;DHT22;57229;51.432;-2.598;2023-02-28T00:21:03;2.00;99.90
56256;DHT22;57229;51.432;-2.598;2023-02-28T00:23:29;2.00;99.90
56256;DHT22;57229;51.432;-2.598;2023-02-28T00:25:55;2.10;99.90
56256;DHT22;57229;51.432;-2.598;2023-02-28T00:28:21;1.90;99.90
56256;DHT22;57229;51.432;-2.598;2023-02-28T00:30:47;1.80;99.90
56256;DHT22;57229;51.432;-2.598;2023-02-28T00:33:16;2.10;99.90
56256;DHT22;57229;51.432;-2.598;2023-02-28T00:35:43;1.80;99.90
56256;DHT22;57229;51.432;-2.598;2023-02-28T00:38:15;1.70;99.90
56256;DHT22;57229;51.432;-2.598;2023-02-28T00:40:41;1.70;99.90
56256;DHT22;57229;51.432;-2.598;2023-02-28T00:43:06;1.60;99.90
56256;DHT22;57229;51.432;-2.598;2023-02-28T00:45:32;1.60;99.90
56256;DHT22;57229;51.432;-2.598;2023-02-28T00:47:58;2.50;99.90
56256;DHT22;57229;51.432;-2.598;2023-02-28T00:50:24;1.70;99.90
56256;DHT22;57229;51.432;-2.598;2023-02-28T00:52:50;1.40;99.90
56256;DHT22;57229;51.432;-2.598;2023-02-28T00:55:15;1.40;99.90
56256;DHT22;57229;51.432;-2.598;2023-02-28T00:57:41;1.40;99.90
56256;DHT22;57229;51.432;-2.598;2023-02-28T01:00:08;1.40;99.90
56256;DHT22;57229;51.432;-2.598;2023-02-28T01:02:34;1.70;99.90
56256;DHT22;57229;51.432;-2.598;2023-02-28T01:05:00;1.30;99.90
56256;DHT22;57229;51.432;-2.598;2023-02-28T01:07:25;1.30;99.90
56256;DHT22;57229;51.432;-2.598;2023-02-28T01:09:51;1.20;99.90
56256;DHT22;57229;51.432;-2.598;2023-02-28T01:12:17;1.30;99.90
56256;DHT22;57229;51.432;-2.598;2023-02-28T01:14:43;1.80;99.90
56256;DHT22;57229;51.432;-2.598;2023-02-28T01:17:09;1.30;99.90
56256;DHT22;57229;51.432;-2.598;2023-02-28T01:19:35;1.30;99.90
56256;DHT22;57229;51.432;-2.598;2023-02-28T01:22:04;1.20;99.90
56256;DHT22;57229;51.432;-2.598;2023-02-28T01:24:31;1.20;99.90
56256;DHT22;57229;51.432;-2.598;2023-02-28T01:26:57;1.60;99.90
56256;DHT22;57229;51.432;-2.598;2023-02-28T01:29:22;1.20;99.90
56256;DHT22;57229;51.432;-2.598;2023-02-28T01:31:48;1.20;99.90
56256;DHT22;57229;51.432;-2.598;2023-02-28T01:34:14;1.40;99.90
56256;DHT22;57229;51.432;-2.598;2023-02-28T01:36:40;1.60;99.90
56256;DHT22;57229;51.432;-2.598;2023-02-28T01:39:05;1.00;99.90
56256;DHT22;57229;51.432;-2.598;2023-02-28T01:41:34;1.00;99.90
56256;DHT22;57229;51.432;-2.598;2023-02-28T01:44:04;1.50;99.90
56256;DHT22;57229;51.432;-2.598;2023-02-28T01:46:31;1.00;99.90
56256;DHT22;57229;51.432;-2.598;2023-02-28T01:49:08;1.40;99.90
56256;DHT22;57229;51.432;-2.598;2023-02-28T01:51:51;1.10;99.90
56256;DHT22;57229;51.432;-2.598;2023-02-28T01:54:35;1.10;99.90
56256;DHT22;57229;51.432;-2.598;2023-02-28T01:57:17;1.10;99.90
56256;DHT22;57229;51.432;-2.598;2023-02-28T02:00:00;1.20;99.90
56256;DHT22;57229;51.432;-2.598;2023-02-28T02:02:33;1.10;99.90
56256;DHT22;57229;51.432;-2.598;2023-02-28T02:05:15;1.00;99.90
56256;DHT22;57229;51.432;-2.598;2023-02-28T02:07:44;0.90;99.90
56256;DHT22;57229;51.432;-2.598;2023-02-28T02:10:47;1.00;99.90
56256;DHT22;57229;51.432;-2.598;2023-02-28T02:16:33;0.90;99.90
56256;DHT22;57229;51.432;-2.598;2023-02-28T02:19:53;1.00;99.90
56256;DHT22;57229;51.432;-2.598;2023-02-28T02:23:17;1.00;99.90
56256;DHT22;57229;51.432;-2.598;2023-02-28T02:25:39;0.90;99.90
56256;DHT22;57229;51.432;-2.598;2023-02-28T02:34:29;0.80;99.90
56256;DHT22;57229;51.432;-2.598;2023-02-28T02:42:39;0.80;99.90
56256;DHT22;57229;51.432;-2.598;2023-02-28T02:45:11;0.80;99.90
56256;DHT22;57229;51.432;-2.598;2023-02-28T02:47:44;0.80;99.90
56256;DHT22;57229;51.432;-2.598;2023-02-28T02:50:52;1.10;99.90
56256;DHT22;57229;51.432;-2.598;2023-02-28T02:53:17;0.90;99.90
56256;DHT22;57229;51.432;-2.598;2023-02-28T02:55:53;1.50;99.90
56256;DHT22;57229;51.432;-2.598;2023-02-28T02:58:25;1.20;99.90
56256;DHT22;57229;51.432;-2.598;2023-02-28T03:01:00;1.10;99.90
56256;DHT22;57229;51.432;-2.598;2023-02-28T03:03:28;0.70;99.90
56256;DHT22;57229;51.432;-2.598;2023-02-28T03:06:02;0.70;99.90
56256;DHT22;57229;51.432;-2.598;2023-02-28T03:08:41;0.60;99.90
56256;DHT22;57229;51.432;-2.598;2023-02-28T03:11:12;0.60;99.90
56256;DHT22;57229;51.432;-2.598;2023-02-28T03:16:38;0.70;99.90
56256;DHT22;57229;51.432;-2.598;2023-02-28T03:19:47;0.70;99.90
56256;DHT22;57229;51.432;-2.598;2023-02-28T03:25:07;0.80;99.90
56256;DHT22;57229;51.432;-2.598;2023-02-28T03:28:06;0.70;99.90
56256;DHT22;57229;51.432;-2.598;2023-02-28T03:33:25;0.80;99.90
56256;DHT22;57229;51.432;-2.598;2023-02-28T03:36:14;1.30;99.90
56256;DHT22;57229;51.432;-2.598;2023-02-28T03:38:48;0.90;99.90
56256;DHT22;57229;51.432;-2.598;2023-02-28T03:41:42;0.90;99.90
56256;DHT22;57229;51.432;-2.598;2023-02-28T03:44:23;0.90;99.90
56256;DHT22;57229;51.432;-2.598;2023-02-28T03:46:58;1.00;99.90
56256;DHT22;57229;51.432;-2.598;2023-02-28T03:49:31;1.00;99.90
56256;DHT22;57229;51.432;-2.598;2023-02-28T03:52:00;1.10;99.90
56256;DHT22;57229;51.432;-2.598;2023-02-28T03:54:40;1.10;99.90
56256;DHT22;57229;51.432;-2.598;2023-02-28T03:57:27;1.10;99.90
56256;DHT22;57229;51.432;-2.598;2023-02-28T03:59:59;1.10;99.90
56256;DHT22;57229;51.432;-2.598;2023-02-28T04:02:31;1.20;99.90
56256;DHT22;57229;51.432;-2.598;2023-02-28T04:04:57;1.80;99.90
56256;DHT22;57229;51.432;-2.598;2023-02-28T04:07:25;1.40;99.90
56256;DHT22;57229;51.432;-2.598;2023-02-28T04:09:54;1.60;99.90
56256;DHT22;57229;51.432;-2.598;2023-02-28T04:12:20;1.40;99.90
56256;DHT22;57229;51.432;-2.598;2023-02-28T04:14:48;1.60;99.90
56256;DHT22;57229;51.432;-2.598;2023-02-28T04:17:15;1.80;99.90
56256;DHT22;57229;51.432;-2.598;2023-02-28T04:19:40;1.90;99.90
56256;DHT22;57229;51.432;-2.598;2023-02-28T04:22:08;1.50;99.90
56256;DHT22;57229;51.432;-2.598;2023-02-28T04:24:34;1.60;99.90
56256;DHT22;57229;51.432;-2.598;2023-02-28T04:27:00;1.70;99.90
56256;DHT22;57229;51.432;-2.598;2023-02-28T04:29:29;1.60;99.90
56256;DHT22;57229;51.432;-2.598;2023-02-28T04:31:55;1.70;99.90
56256;DHT22;57229;51.432;-2.598;2023-02-28T04:34:25;1.70;99.90
56256;DHT22;57229;51.432;-2.598;2023-02-28T04:36:51;1.70;99.90
56256;DHT22;57229;51.432;-2.598;2023-02-28T04:39:21;1.80;99.90
56256;DHT22;57229;51.432;-2.598;2023-02-28T04:41:48;1.80;99.90
56256;DHT22;57229;51.432;-2.598;2023-02-28T04:44:14;2.10;99.90
56256;DHT22;57229;51.432;-2.598;2023-02-28T04:46:40;2.20;99.90
56256;DHT22;57229;51.432;-2.598;2023-02-28T04:49:06;1.90;99.90
56256;DHT22;57229;51.432;-2.598;2023-02-28T04:51:31;1.90;99.90
56256;DHT22;57229;51.432;-2.598;2023-02-28T04:53:57;2.00;99.90
56256;DHT22;57229;51.432;-2.598;2023-02-28T04:56:23;1.90;99.90
56256;DHT22;57229;51.432;-2.598;2023-02-28T04:58:49;2.00;99.90
56256;DHT22;57229;51.432;-2.598;2023-02-28T05:01:29;2.00;99.90
56256;DHT22;57229;51.432;-2.598;2023-02-28T05:03:58;2.10;99.90
56256;DHT22;57229;51.432;-2.598;2023-02-28T05:06:25;2.00;99.90
56256;DHT22;57229;51.432;-2.598;2023-02-28T05:08:54;2.00;99.90
56256;DHT22;57229;51.432;-2.598;2023-02-28T05:11:29;2.10;99.90
56256;DHT22;57229;51.432;-2.598;2023-02-28T05:14:10;2.10;99.90
56256;DHT22;57229;51.432;-2.598;2023-02-28T05:16:36;2.30;99.90
56256;DHT22;57229;51.432;-2.598;2023-02-28T05:19:02;2.20;99.90
56256;DHT22;57229;51.432;-2.598;2023-02-28T05:21:39;2.30;99.90
56256;DHT22;57229;51.432;-2.598;2023-02-28T05:24:08;2.30;99.90
56256;DHT22;57229;51.432;-2.598;2023-02-28T05:26:36;2.30;99.90
56256;DHT22;57229;51.432;-2.598;2023-02-28T05:29:02;2.40;99.90
56256;DHT22;57229;51.432;-2.598;2023-02-28T05:31:28;2.50;99.90
56256;DHT22;57229;51.432;-2.598;2023-02-28T05:33:54;2.50;99.90
56256;DHT22;57229;51.432;-2.598;2023-02-28T05:36:20;2.50;99.90
56256;DHT22;57229;51.432;-2.598;2023-02-28T05:38:47;2.50;99.90
56256;DHT22;57229;51.432;-2.598;2023-02-28T05:41:14;2.60;99.90
56256;DHT22;57229;51.432;-2.598;2023-02-28T05:43:39;2.60;99.90
56256;DHT22;57229;51.432;-2.598;2023-02-28T05:46:07;2.60;99.90
56256;DHT22;57229;51.432;-2.598;2023-02-28T05:48:34;2.80;99.90
56256;DHT22;57229;51.432;-2.598;2023-02-28T05:51:00;2.80;99.90
56256;DHT22;57229;51.432;-2.598;2023-02-28T05:53:26;2.80;99.90
56256;DHT22;57229;51.432;-2.598;2023-02-28T05:55:52;2.80;99.90
56256;DHT22;57229;51.432;-2.598;2023-02-28T05:58:18;2.70;99.90
56256;DHT22;57229;51.432;-2.598;2023-02-28T06:00:44;2.70;99.90
56256;DHT22;57229;51.432;-2.598;2023-02-28T06:03:09;2.70;99.90
56256;DHT22;57229;51.432;-2.598;2023-02-28T06:05:35;2.70;99.90
56256;DHT22;57229;51.432;-2.598;2023-02-28T06:08:01;2.60;99.90
56256;DHT22;57229;51.432;-2.598;2023-02-28T06:10:26;2.70;99.90
56256;DHT22;57229;51.432;-2.598;2023-02-28T06:12:52;2.70;99.90
56256;DHT22;57229;51.432;-2.598;2023-02-28T06:15:18;2.80;99.90
56256;DHT22;57229;51.432;-2.598;2023-02-28T06:17:44;2.80;99.90
56256;DHT22;57229;51.432;-2.598;2023-02-28T06:20:11;2.90;99.90
56256;DHT22;57229;51.432;-2.598;2023-02-28T06:22:38;2.90;99.90
56256;DHT22;57229;51.432;-2.598;2023-02-28T06:25:05;2.90;99.90
56256;DHT22;57229;51.432;-2.598;2023-02-28T06:27:32;2.90;99.90
56256;DHT22;57229;51.432;-2.598;2023-02-28T06:29:58;2.80;99.90
56256;DHT22;57229;51.432;-2.598;2023-02-28T06:32:24;2.80;99.90
56256;DHT22;57229;51.432;-2.598;2023-02-28T06:34:50;2.70;99.90
56256;DHT22;57229;51.432;-2.598;2023-02-28T06:37:17;2.70;99.90
56256;DHT22;57229;51.432;-2.598;2023-02-28T06:39:43;2.80;99.90
56256;DHT22;57229;51.432;-2.598;2023-02-28T06:42:08;2.70;99.90
56256;DHT22;57229;51.432;-2.598;2023-02-28T06:44:34;2.70;99.90
56256;DHT22;57229;51.432;-2.598;2023-02-28T06:47:04;3.00;99.90
56256;DHT22;57229;51.432;-2.598;2023-02-28T06:49:32;2.70;99.90
56256;DHT22;57229;51.432;-2.598;2023-02-28T06:51:58;2.70;99.90
56256;DHT22;57229;51.432;-2.598;2023-02-28T06:54:24;2.90;99.90
56256;DHT22;57229;51.432;-2.598;2023-02-28T06:56:50;2.70;99.90
56256;DHT22;57229;51.432;-2.598;2023-02-28T06:59:16;2.70;99.90
56256;DHT22;57229;51.432;-2.598;2023-02-28T07:01:42;2.80;99.90
56256;DHT22;57229;51.432;-2.598;2023-02-28T07:04:08;2.80;99.90
56256;DHT22;57229;51.432;-2.598;2023-02-28T07:06:34;2.80;99.90
56256;DHT22;57229;51.432;-2.598;2023-02-28T07:09:00;2.80;99.90
56256;DHT22;57229;51.432;-2.598;2023-02-28T07:11:27;2.80;99.90
56256;DHT22;57229;51.432;-2.598;2023-02-28T07:13:54;2.90;99.90
56256;DHT22;57229;51.432;-2.598;2023-02-28T07:16:20;2.90;99.90
56256;DHT22;57229;51.432;-2.598;2023-02-28T07:18:46;3.00;99.90
56256;DHT22;57229;51.432;-2.598;2023-02-28T07:21:12;3.00;99.90
56256;DHT22;57229;51.432;-2.598;2023-02-28T07:23:39;3.10;99.90
56256;DHT22;57229;51.432;-2.598;2023-02-28T07:26:06;3.20;99.90
56256;DHT22;57229;51.432;-2.598;2023-02-28T07:28:32;3.30;99.90
56256;DHT22;57229;51.432;-2.598;2023-02-28T07:31:06;3.40;99.90
56256;DHT22;57229;51.432;-2.598;2023-02-28T07:33:32;3.50;99.90
56256;DHT22;57229;51.432;-2.598;2023-02-28T07:36:04;3.60;99.90
56256;DHT22;57229;51.432;-2.598;2023-02-28T07:38:34;3.70;99.90
56256;DHT22;57229;51.432;-2.598;2023-02-28T07:41:01;3.80;99.90
56256;DHT22;57229;51.432;-2.598;2023-02-28T07:43:30;3.80;99.90
56256;DHT22;57229;51.432;-2.598;2023-02-28T07:45:55;3.90;99.90
56256;DHT22;57229;51.432;-2.598;2023-02-28T07:48:21;3.90;99.90
56256;DHT22;57229;51.432;-2.598;2023-02-28T07:50:57;4.00;99.90
56256;DHT22;57229;51.432;-2.598;2023-02-28T07:53:23;4.00;99.90
56256;DHT22;57229;51.432;-2.598;2023-02-28T07:55:49;4.10;99.90
56256;DHT22;57229;51.432;-2.598;2023-02-28T07:58:14;4.20;99.90
56256;DHT22;57229;51.432;-2.598;2023-02-28T08:00:40;4.30;99.90
56256;DHT22;57229;51.432;-2.598;2023-02-28T08:03:06;4.30;99.90
56256;DHT22;57229;51.432;-2.598;2023-02-28T08:05:31;4.30;99.90
56256;DHT22;57229;51.432;-2.598;2023-02-28T08:07:57;4.40;99.90
56256;DHT22;57229;51.432;-2.598;2023-02-28T08:10:23;4.40;99.90
56256;DHT22;57229;51.432;-2.598;2023-02-28T08:12:49;4.40;99.90
56256;DHT22;57229;51.432;-2.598;2023-02-28T08:15:15;4.50;99.90
56256;DHT22;57229;51.432;-2.598;2023-02-28T08:17:41;4.50;99.90
56256;DHT22;57229;51.432;-2.598;2023-02-28T08:20:07;4.60;99.90
56256;DHT22;57229;51.432;-2.598;2023-02-28T08:22:33;4.60;99.90
56256;DHT22;57229;51.432;-2.598;2023-02-28T08:24:58;4.70;99.90
56256;DHT22;57229;51.432;-2.598;2023-02-28T08:27:24;4.80;99.90
56256;DHT22;57229;51.432;-2.598;2023-02-28T08:29:50;4.80;99.90
56256;DHT22;57229;51.432;-2.598;2023-02-28T08:32:15;4.90;99.90
56256;DHT22;57229;51.432;-2.598;2023-02-28T08:34:41;5.00;99.90
56256;DHT22;57229;51.432;-2.598;2023-02-28T08:37:06;5.00;99.90
56256;DHT22;57229;51.432;-2.598;2023-02-28T08:39:35;5.10;99.90
56256;DHT22;57229;51.432;-2.598;2023-02-28T08:42:02;5.10;99.90
56256;DHT22;57229;51.432;-2.598;2023-02-28T08:44:28;5.10;99.90
56256;DHT22;57229;51.432;-2.598;2023-02-28T08:46:54;5.20;99.90
56256;DHT22;57229;51.432;-2.598;2023-02-28T08:49:20;5.20;99.90
56256;DHT22;57229;51.432;-2.598;2023-02-28T08:51:46;5.20;99.90
56256;DHT22;57229;51.432;-2.598;2023-02-28T08:54:11;5.20;99.90
56256;DHT22;57229;51.432;-2.598;2023-02-28T08:56:38;5.30;99.90
56256;DHT22;57229;51.432;-2.598;2023-02-28T08:59:04;5.40;99.90
56256;DHT22;57229;51.432;-2.598;2023-02-28T09:01:30;5.50;99.90
56256;DHT22;57229;51.432;-2.598;2023-02-28T09:03:57;5.60;99.90
56256;DHT22;57229;51.432;-2.598;2023-02-28T09:06:25;5.60;99.90
56256;DHT22;57229;51.432;-2.598;2023-02-28T09:08:51;5.70;99.90
56256;DHT22;57229;51.432;-2.598;2023-02-28T09:11:18;5.70;99.90
56256;DHT22;57229;51.432;-2.598;2023-02-28T09:13:45;5.80;99.90
56256;DHT22;57229;51.432;-2.598;2023-02-28T09:16:14;5.80;99.90
56256;DHT22;57229;51.432;-2.598;2023-02-28T09:18:40;5.80;99.90
56256;DHT22;57229;51.432;-2.598;2023-02-28T09:21:07;5.90;99.90
56256;DHT22;57229;51.432;-2.598;2023-02-28T09:23:34;5.90;99.90
56256;DHT22;57229;51.432;-2.598;2023-02-28T09:26:00;5.90;99.90
56256;DHT22;57229;51.432;-2.598;2023-02-28T09:28:25;5.90;99.90
56256;DHT22;57229;51.432;-2.598;2023-02-28T09:30:53;6.00;99.90
56256;DHT22;57229;51.432;-2.598;2023-02-28T09:33:20;6.00;99.90
56256;DHT22;57229;51.432;-2.598;2023-02-28T09:35:50;6.00;99.90
56256;DHT22;57229;51.432;-2.598;2023-02-28T09:38:17;6.10;99.90
56256;DHT22;57229;51.432;-2.598;2023-02-28T09:40:56;6.10;99.90
56256;DHT22;57229;51.432;-2.598;2023-02-28T09:43:26;6.10;99.90
56256;DHT22;57229;51.432;-2.598;2023-02-28T09:48:47;6.10;99.90
56256;DHT22;57229;51.432;-2.598;2023-02-28T09:54:16;6.10;99.90
56256;DHT22;57229;51.432;-2.598;2023-02-28T09:56:48;6.20;99.90
56256;DHT22;57229;51.432;-2.598;2023-02-28T10:05:03;6.40;99.90
56256;DHT22;57229;51.432;-2.598;2023-02-28T10:07:52;6.40;99.90
56256;DHT22;57229;51.432;-2.598;2023-02-28T10:10:25;6.50;99.90
56256;DHT22;57229;51.432;-2.598;2023-02-28T10:12:54;6.60;99.90
56256;DHT22;57229;51.432;-2.598;2023-02-28T10:15:24;6.60;99.90
56256;DHT22;57229;51.432;-2.598;2023-02-28T10:17:54;6.80;99.90
56256;DHT22;57229;51.432;-2.598;2023-02-28T10:20:23;6.80;99.90
56256;DHT22;57229;51.432;-2.598;2023-02-28T10:23:21;6.90;99.90
56256;DHT22;57229;51.432;-2.598;2023-02-28T10:26:11;6.90;99.90
56256;DHT22;57229;51.432;-2.598;2023-02-28T10:28:37;6.90;99.90
56256;DHT22;57229;51.432;-2.598;2023-02-28T10:31:03;7.00;99.90
56256;DHT22;57229;51.432;-2.598;2023-02-28T10:33:31;7.00;99.90
56256;DHT22;57229;51.432;-2.598;2023-02-28T10:36:00;7.10;99.90
56256;DHT22;57229;51.432;-2.598;2023-02-28T10:38:36;7.20;99.90
56256;DHT22;57229;51.432;-2.598;2023-02-28T10:41:12;7.30;99.90
56256;DHT22;57229;51.432;-2.598;2023-02-28T10:43:40;7.40;99.90
56256;DHT22;57229;51.432;-2.598;2023-02-28T10:46:11;7.50;99.90
56256;DHT22;57229;51.432;-2.598;2023-02-28T10:48:41;7.50;99.90
56256;DHT22;57229;51.432;-2.598;2023-02-28T10:51:12;7.60;99.90
56256;DHT22;57229;51.432;-2.598;2023-02-28T10:53:55;7.60;99.90
56256;DHT22;57229;51.432;-2.598;2023-02-28T10:56:22;7.70;99.90
56256;DHT22;57229;51.432;-2.598;2023-02-28T11:04:16;8.00;99.90
56256;DHT22;57229;51.432;-2.598;2023-02-28T11:06:43;8.30;99.90
56256;DHT22;57229;51.432;-2.598;2023-02-28T11:09:24;8.40;99.90
56256;DHT22;57229;51.432;-2.598;2023-02-28T11:11:52;8.50;99.90
56256;DHT22;57229;51.432;-2.598;2023-02-28T11:14:29;8.60;99.90
56256;DHT22;57229;51.432;-2.598;2023-02-28T11:17:20;8.60;99.90
56256;DHT22;57229;51.432;-2.598;2023-02-28T11:19:50;8.70;99.90
56256;DHT22;57229;51.432;-2.598;2023-02-28T11:22:19;8.70;99.90
56256;DHT22;57229;51.432;-2.598;2023-02-28T11:24:49;8.70;99.90
56256;DHT22;57229;51.432;-2.598;2023-02-28T11:29:54;8.70;99.90
56256;DHT22;57229;51.432;-2.598;2023-02-28T11:32:22;8.70;99.90
56256;DHT22;57229;51.432;-2.598;2023-02-28T11:35:16;8.70;99.90
56256;DHT22;57229;51.432;-2.598;2023-02-28T11:37:42;8.60;99.90
56256;DHT22;57229;51.432;-2.598;2023-02-28T11:40:21;8.60;99.90
56256;DHT22;57229;51.432;-2.598;2023-02-28T11:53:54;8.10;99.90
56256;DHT22;57229;51.432;-2.598;2023-02-28T11:56:38;8.10;99.90
56256;DHT22;57229;51.432;-2.598;2023-02-28T12:02:26;8.30;99.90
56256;DHT22;57229;51.432;-2.598;2023-02-28T12:15:41;10.80;97.60
56256;DHT22;57229;51.432;-2.598;2023-02-28T12:18:24;10.50;97.30
56256;DHT22;57229;51.432;-2.598;2023-02-28T12:24:01;9.90;98.00
56256;DHT22;57229;51.432;-2.598;2023-02-28T12:26:39;9.60;98.30
56256;DHT22;57229;51.432;-2.598;2023-02-28T12:29:28;9.50;99.00
56256;DHT22;57229;51.432;-2.598;2023-02-28T12:32:30;9.30;99.40
56256;DHT22;57229;51.432;-2.598;2023-02-28T12:37:46;9.00;99.90
56256;DHT22;57229;51.432;-2.598;2023-02-28T12:40:21;8.90;99.90
56256;DHT22;57229;51.432;-2.598;2023-02-28T12:43:07;8.90;99.90
56256;DHT22;57229;51.432;-2.598;2023-02-28T12:45:45;8.90;99.90
56256;DHT22;57229;51.432;-2.598;2023-02-28T12:51:19;8.80;99.90
56256;DHT22;57229;51.432;-2.598;2023-02-28T12:59:25;8.70;99.90
56256;DHT22;57229;51.432;-2.598;2023-02-28T13:02:32;8.70;99.90
56256;DHT22;57229;51.432;-2.598;2023-02-28T13:05:24;8.60;99.90
56256;DHT22;57229;51.432;-2.598;2023-02-28T13:11:30;8.60;99.90
56256;DHT22;57229;51.432;-2.598;2023-02-28T13:14:05;8.60;99.90
56256;DHT22;57229;51.432;-2.598;2023-02-28T13:19:35;8.70;99.90
56256;DHT22;57229;51.432;-2.598;2023-02-28T13:22:02;9.00;99.90
56256;DHT22;57229;51.432;-2.598;2023-02-28T13:29:32;9.80;99.90
56256;DHT22;57229;51.432;-2.598;2023-02-28T13:34:31;9.90;99.20
56256;DHT22;57229;51.432;-2.598;2023-02-28T13:47:41;10.10;99.80
56256;DHT22;57229;51.432;-2.598;2023-02-28T13:50:30;10.30;98.90
56256;DHT22;57229;51.432;-2.598;2023-02-28T13:56:07;10.20;98.50
56256;DHT22;57229;51.432;-2.598;2023-02-28T13:58:43;10.20;98.80
56256;DHT22;57229;51.432;-2.598;2023-02-28T14:01:26;10.10;98.80
56256;DHT22;57229;51.432;-2.598;2023-02-28T14:04:29;10.00;99.20
56256;DHT22;57229;51.432;-2.598;2023-02-28T14:07:03;9.80;99.40
56256;DHT22;57229;51.432;-2.598;2023-02-28T14:09:36;9.60;99.90
56256;DHT22;57229;51.432;-2.598;2023-02-28T14:15:27;9.40;99.90
56256;DHT22;57229;51.432;-2.598;2023-02-28T14:17:55;9.30;99.90
56256;DHT22;57229;51.432;-2.598;2023-02-28T14:20:23;9.20;99.90
56256;DHT22;57229;51.432;-2.598;2023-02-28T14:23:12;9.00;99.90
56256;DHT22;57229;51.432;-2.598;2023-02-28T14:26:10;8.90;99.90
56256;DHT22;57229;51.432;-2.598;2023-02-28T14:31:22;9.10;99.90
56256;DHT22;57229;51.432;-2.598;2023-02-28T14:37:15;9.90;99.90
56256;DHT22;57229;51.432;-2.598;2023-02-28T14:39:43;10.10;99.90
56256;DHT22;57229;51.432;-2.598;2023-02-28T14:42:38;10.00;99.90
56256;DHT22;57229;51.432;-2.598;2023-02-28T14:45:20;10.00;99.90
56256;DHT22;57229;51.432;-2.598;2023-02-28T14:47:47;10.00;99.90
56256;DHT22;57229;51.432;-2.598;2023-02-28T14:50:24;10.20;99.90
56256;DHT22;57229;51.432;-2.598;2023-02-28T14:52:55;10.30;99.90
56256;DHT22;57229;51.432;-2.598;2023-02-28T14:55:26;10.60;99.90
56256;DHT22;57229;51.432;-2.598;2023-02-28T14:57:59;11.30;99.30
56256;DHT22;57229;51.432;-2.598;2023-02-28T15:00:30;12.10;97.40
56256;DHT22;57229;51.432;-2.598;2023-02-28T15:02:58;13.10;95.50
56256;DHT22;57229;51.432;-2.598;2023-02-28T15:05:29;14.10;94.40
56256;DHT22;57229;51.432;-2.598;2023-02-28T15:08:22;15.60;92.00
56256;DHT22;57229;51.432;-2.598;2023-02-28T15:11:04;17.00;88.10
56256;DHT22;57229;51.432;-2.598;2023-02-28T15:16:04;15.30;87.10
56256;DHT22;57229;51.432;-2.598;2023-02-28T15:18:35;13.70;90.60
56256;DHT22;57229;51.432;-2.598;2023-02-28T15:21:07;12.60;92.80
56256;DHT22;57229;51.432;-2.598;2023-02-28T15:23:36;11.70;94.60
56256;DHT22;57229;51.432;-2.598;2023-02-28T15:26:03;11.10;96.10
56256;DHT22;57229;51.432;-2.598;2023-02-28T15:28:30;10.60;96.90
56256;DHT22;57229;51.432;-2.598;2023-02-28T15:31:03;10.30;97.80
56256;DHT22;57229;51.432;-2.598;2023-02-28T15:33:58;10.10;98.30
56256;DHT22;57229;51.432;-2.598;2023-02-28T15:36:30;9.90;98.70
56256;DHT22;57229;51.432;-2.598;2023-02-28T15:39:00;9.80;98.90
56256;DHT22;57229;51.432;-2.598;2023-02-28T15:41:30;9.70;99.20
56256;DHT22;57229;51.432;-2.598;2023-02-28T15:47:12;9.50;99.40
56256;DHT22;57229;51.432;-2.598;2023-02-28T15:49:55;10.30;99.80
56256;DHT22;57229;51.432;-2.598;2023-02-28T15:52:39;12.70;96.30
56256;DHT22;57229;51.432;-2.598;2023-02-28T15:55:21;15.20;91.40
56256;DHT22;57229;51.432;-2.598;2023-02-28T15:57:52;15.20;88.30
56256;DHT22;57229;51.432;-2.598;2023-02-28T16:00:21;15.30;89.60
56256;DHT22;57229;51.432;-2.598;2023-02-28T16:02:47;15.20;88.60
56256;DHT22;57229;51.432;-2.598;2023-02-28T16:07:57;15.40;88.40
56256;DHT22;57229;51.432;-2.598;2023-02-28T16:10:25;15.90;85.30
56256;DHT22;57229;51.432;-2.598;2023-02-28T16:12:54;16.00;84.00
56256;DHT22;57229;51.432;-2.598;2023-02-28T16:17:48;14.70;83.50
56256;DHT22;57229;51.432;-2.598;2023-02-28T16:20:18;13.70;86.80
56256;DHT22;57229;51.432;-2.598;2023-02-28T16:22:44;12.70;90.40
56256;DHT22;57229;51.432;-2.598;2023-02-28T16:25:15;12.10;91.70
56256;DHT22;57229;51.432;-2.598;2023-02-28T16:27:42;11.50;92.70
56256;DHT22;57229;51.432;-2.598;2023-02-28T16:30:24;11.10;93.50
56256;DHT22;57229;51.432;-2.598;2023-02-28T16:32:53;10.80;94.00
56256;DHT22;57229;51.432;-2.598;2023-02-28T16:35:20;10.60;94.60
56256;DHT22;57229;51.432;-2.598;2023-02-28T16:37:45;10.40;94.90
56256;DHT22;57229;51.432;-2.598;2023-02-28T16:40:16;10.30;95.20
56256;DHT22;57229;51.432;-2.598;2023-02-28T16:42:46;10.20;95.40
56256;DHT22;57229;51.432;-2.598;2023-02-28T16:45:31;10.10;95.80
56256;DHT22;57229;51.432;-2.598;2023-02-28T16:47:57;10.10;95.80
56256;DHT22;57229;51.432;-2.598;2023-02-28T16:50:26;10.00;95.90
56256;DHT22;57229;51.432;-2.598;2023-02-28T16:52:52;9.90;96.10
56256;DHT22;57229;51.432;-2.598;2023-02-28T16:55:20;9.90;96.00
56256;DHT22;57229;51.432;-2.598;2023-02-28T16:57:55;9.90;96.10
56256;DHT22;57229;51.432;-2.598;2023-02-28T17:00:26;9.90;95.70
56256;DHT22;57229;51.432;-2.598;2023-02-28T17:02:56;9.80;95.60
56256;DHT22;57229;51.432;-2.598;2023-02-28T17:05:22;9.70;95.70
56256;DHT22;57229;51.432;-2.598;2023-02-28T17:07:49;9.60;95.70
56256;DHT22;57229;51.432;-2.598;2023-02-28T17:10:24;9.50;96.10
56256;DHT22;57229;51.432;-2.598;2023-02-28T17:12:51;9.50;96.20
56256;DHT22;57229;51.432;-2.598;2023-02-28T17:15:18;9.40;96.30
56256;DHT22;57229;51.432;-2.598;2023-02-28T17:17:45;9.30;96.50
56256;DHT22;57229;51.432;-2.598;2023-02-28T17:20:17;9.20;96.70
56256;DHT22;57229;51.432;-2.598;2023-02-28T17:22:46;9.00;96.90
56256;DHT22;57229;51.432;-2.598;2023-02-28T17:25:12;9.00;97.20
56256;DHT22;57229;51.432;-2.598;2023-02-28T17:27:38;8.90;97.40
56256;DHT22;57229;51.432;-2.598;2023-02-28T17:30:15;8.80;97.70
56256;DHT22;57229;51.432;-2.598;2023-02-28T17:32:41;8.70;97.90
56256;DHT22;57229;51.432;-2.598;2023-02-28T17:35:08;8.60;98.10
56256;DHT22;57229;51.432;-2.598;2023-02-28T17:37:33;8.60;98.50
56256;DHT22;57229;51.432;-2.598;2023-02-28T17:39:59;8.50;98.30
56256;DHT22;57229;51.432;-2.598;2023-02-28T17:42:25;8.50;98.50
56256;DHT22;57229;51.432;-2.598;2023-02-28T17:44:51;8.40;98.50
56256;DHT22;57229;51.432;-2.598;2023-02-28T17:47:16;8.40;98.80
56256;DHT22;57229;51.432;-2.598;2023-02-28T17:49:42;8.40;98.90
56256;DHT22;57229;51.432;-2.598;2023-02-28T17:52:08;8.30;99.00
56256;DHT22;57229;51.432;-2.598;2023-02-28T17:54:34;8.30;99.10
56256;DHT22;57229;51.432;-2.598;2023-02-28T17:57:00;8.30;99.10
56256;DHT22;57229;51.432;-2.598;2023-02-28T17:59:26;8.30;99.10
56256;DHT22;57229;51.432;-2.598;2023-02-28T18:01:59;8.20;99.30
56256;DHT22;57229;51.432;-2.598;2023-02-28T18:04:25;8.10;99.50